ESST/TYF METAR and TAF weather

Enter ICAO airport designator
Station Type Date Time Source
ESST METAR 2020/07/10 20:20 UTC NOAA

ESST 102020Z AUTO 00000KT 9999 OVC057/// 12/10 Q1007


Station Type Date Time Source
ESST Decoded METAR 2020/07/10 20:20 UTC NOAA

Station name not available
Jul 10, 2020 - 04:20 PM EDT / 2020.07.10 2020 UTC
Wind: Calm:0
Visibility: greater than 7 mile(s):0
Sky conditions: overcast
Temperature: 53 F (12 C)
Dew Point: 50 F (10 C)
Relative Humidity: 87%
Pressure (altimeter): 29.74 in. Hg (1007 hPa)
ob: ESST 102020Z AUTO 00000KT 9999 OVC057/// 12/10 Q1007
cycle: 20

Station Type Date Time Source
ESST TAF UTC NOAA

Error!

Example: see airport list